sensor_id;sensor_type;location;lat;lon;timestamp;pressure;altitude;pressure_sealevel;temperature;humidity
53868;BME280;41577;47.470;19.080;2023-05-07T00:00:04;100180.69;;;15.86;100.00
53868;BME280;41577;47.470;19.080;2023-05-07T00:00:18;100187.47;;;15.88;100.00
53868;BME280;41577;47.470;19.080;2023-05-07T00:00:30;100181.50;;;15.86;100.00
53868;BME280;41577;47.470;19.080;2023-05-07T00:00:42;100181.50;;;15.86;100.00
53868;BME280;41577;47.470;19.080;2023-05-07T00:00:54;100180.69;;;15.86;100.00
53868;BME280;41577;47.470;19.080;2023-05-07T00:01:06;100183.38;;;15.86;100.00
53868;BME280;41577;47.470;19.080;2023-05-07T00:01:18;100188.75;;;15.86;100.00
53868;BME280;41577;47.470;19.080;2023-05-07T00:01:30;100187.69;;;15.87;100.00
53868;BME280;41577;47.470;19.080;2023-05-07T00:01:42;100183.38;;;15.86;100.00
53868;BME280;41577;47.470;19.080;2023-05-07T00:01:54;100183.38;;;15.86;100.00
53868;BME280;41577;47.470;19.080;2023-05-07T00:02:06;100187.94;;;15.85;100.00
53868;BME280;41577;47.470;19.080;2023-05-07T00:02:19;100187.09;;;15.85;100.00
53868;BME280;41577;47.470;19.080;2023-05-07T00:02:31;100187.09;;;15.85;100.00
53868;BME280;41577;47.470;19.080;2023-05-07T00:02:43;100181.72;;;15.85;100.00
53868;BME280;41577;47.470;19.080;2023-05-07T00:02:55;100188.97;;;15.84;100.00
53868;BME280;41577;47.470;19.080;2023-05-07T00:03:07;100182.78;;;15.84;100.00
53868;BME280;41577;47.470;19.080;2023-05-07T00:03:19;100190.84;;;15.84;100.00
53868;BME280;41577;47.470;19.080;2023-05-07T00:03:31;100188.16;;;15.84;100.00
53868;BME280;41577;47.470;19.080;2023-05-07T00:03:43;100186.53;;;15.83;100.00
53868;BME280;41577;47.470;19.080;2023-05-07T00:03:55;100185.69;;;15.82;100.00
53868;BME280;41577;47.470;19.080;2023-05-07T00:04:07;100184.88;;;15.82;100.00
53868;BME280;41577;47.470;19.080;2023-05-07T00:04:19;100190.03;;;15.83;100.00
53868;BME280;41577;47.470;19.080;2023-05-07T00:04:31;100182.16;;;15.82;100.00
53868;BME280;41577;47.470;19.080;2023-05-07T00:04:43;100186.75;;;15.81;100.00
53868;BME280;41577;47.470;19.080;2023-05-07T00:04:55;100186.75;;;15.81;100.00
53868;BME280;41577;47.470;19.080;2023-05-07T00:05:07;100184.88;;;15.82;100.00
53868;BME280;41577;47.470;19.080;2023-05-07T00:05:20;100179.69;;;15.80;100.00
53868;BME280;41577;47.470;19.080;2023-05-07T00:05:32;100185.31;;;15.79;100.00
53868;BME280;41577;47.470;19.080;2023-05-07T00:05:44;100188.84;;;15.79;100.00
53868;BME280;41577;47.470;19.080;2023-05-07T00:05:56;100183.44;;;15.79;100.00
53868;BME280;41577;47.470;19.080;2023-05-07T00:06:08;100178.28;;;15.78;100.00
53868;BME280;41577;47.470;19.080;2023-05-07T00:06:20;100186.34;;;15.78;100.00
53868;BME280;41577;47.470;19.080;2023-05-07T00:06:32;100188.25;;;15.77;100.00
53868;BME280;41577;47.470;19.080;2023-05-07T00:06:44;100180.16;;;15.77;100.00
53868;BME280;41577;47.470;19.080;2023-05-07T00:06:56;100183.66;;;15.78;100.00
53868;BME280;41577;47.470;19.080;2023-05-07T00:07:08;100180.38;;;15.76;100.00
53868;BME280;41577;47.470;19.080;2023-05-07T00:07:19;100187.41;;;15.77;100.00
53868;BME280;41577;47.470;19.080;2023-05-07T00:07:31;100182.25;;;15.75;100.00
53868;BME280;41577;47.470;19.080;2023-05-07T00:07:43;100183.06;;;15.76;100.00
53868;BME280;41577;47.470;19.080;2023-05-07T00:07:55;100188.44;;;15.76;100.00
53868;BME280;41577;47.470;19.080;2023-05-07T00:08:10;100186.81;;;15.75;100.00
53868;BME280;41577;47.470;19.080;2023-05-07T00:08:22;100178.75;;;15.75;100.00
53868;BME280;41577;47.470;19.080;2023-05-07T00:08:34;100186.00;;;15.74;100.00
53868;BME280;41577;47.470;19.080;2023-05-07T00:08:46;100183.53;;;15.73;100.00
53868;BME280;41577;47.470;19.080;2023-05-07T00:08:58;100187.03;;;15.73;100.00
53868;BME280;41577;47.470;19.080;2023-05-07T00:09:10;100178.97;;;15.73;100.00
53868;BME280;41577;47.470;19.080;2023-05-07T00:09:22;100184.59;;;15.72;100.00
53868;BME280;41577;47.470;19.080;2023-05-07T00:09:34;100183.53;;;15.73;100.00
53868;BME280;41577;47.470;19.080;2023-05-07T00:09:46;100184.59;;;15.72;100.00
53868;BME280;41577;47.470;19.080;2023-05-07T00:09:57;100186.44;;;15.71;100.00
53868;BME280;41577;47.470;19.080;2023-05-07T00:10:10;100185.41;;;15.72;100.00
53868;BME280;41577;47.470;19.080;2023-05-07T00:10:22;100186.44;;;15.71;100.00
53868;BME280;41577;47.470;19.080;2023-05-07T00:10:34;100180.22;;;15.71;100.00
53868;BME280;41577;47.470;19.080;2023-05-07T00:10:46;100182.09;;;15.70;100.00
53868;BME280;41577;47.470;19.080;2023-05-07T00:10:58;100191.00;;;15.71;100.00
53868;BME280;41577;47.470;19.080;2023-05-07T00:11:09;100185.63;;;15.71;100.00
53868;BME280;41577;47.470;19.080;2023-05-07T00:11:21;100183.09;;;15.69;100.00
53868;BME280;41577;47.470;19.080;2023-05-07T00:11:33;100183.09;;;15.69;100.00
53868;BME280;41577;47.470;19.080;2023-05-07T00:11:47;100177.72;;;15.69;100.00
53868;BME280;41577;47.470;19.080;2023-05-07T00:11:59;100183.09;;;15.69;100.00
53868;BME280;41577;47.470;19.080;2023-05-07T00:12:11;100178.56;;;15.69;100.00
53868;BME280;41577;47.470;19.080;2023-05-07T00:12:23;100183.09;;;15.69;100.00
53868;BME280;41577;47.470;19.080;2023-05-07T00:12:34;100180.41;;;15.69;100.00
53868;BME280;41577;47.470;19.080;2023-05-07T00:12:46;100180.66;;;15.67;100.00
53868;BME280;41577;47.470;19.080;2023-05-07T00:12:58;100179.84;;;15.67;100.00
53868;BME280;41577;47.470;19.080;2023-05-07T00:13:10;100182.53;;;15.67;100.00
53868;BME280;41577;47.470;19.080;2023-05-07T00:13:22;100182.53;;;15.67;100.00
53868;BME280;41577;47.470;19.080;2023-05-07T00:13:34;100183.34;;;15.67;100.00
53868;BME280;41577;47.470;19.080;2023-05-07T00:13:47;100183.34;;;15.67;100.00
53868;BME280;41577;47.470;19.080;2023-05-07T00:13:58;100185.22;;;15.67;100.00
53868;BME280;41577;47.470;19.080;2023-05-07T00:14:11;100181.69;;;15.66;100.00
53868;BME280;41577;47.470;19.080;2023-05-07T00:14:22;100180.88;;;15.66;100.00
53868;BME280;41577;47.470;19.080;2023-05-07T00:14:34;100183.56;;;15.66;100.00
53868;BME280;41577;47.470;19.080;2023-05-07T00:14:46;100173.00;;;15.64;100.00
53868;BME280;41577;47.470;19.080;2023-05-07T00:14:58;100181.09;;;15.64;100.00
53868;BME280;41577;47.470;19.080;2023-05-07T00:15:10;100178.66;;;15.63;100.00
53868;BME280;41577;47.470;19.080;2023-05-07T00:15:23;100174.88;;;15.64;100.00
53868;BME280;41577;47.470;19.080;2023-05-07T00:15:34;100180.28;;;15.64;100.00
53868;BME280;41577;47.470;19.080;2023-05-07T00:15:46;100185.66;;;15.64;100.00
53868;BME280;41577;47.470;19.080;2023-05-07T00:15:58;100188.34;;;15.64;100.00
53868;BME280;41577;47.470;19.080;2023-05-07T00:16:10;100179.47;;;15.63;100.00
53868;BME280;41577;47.470;19.080;2023-05-07T00:16:22;100187.53;;;15.63;100.00
53868;BME280;41577;47.470;19.080;2023-05-07T00:16:34;100187.75;;;15.62;100.00
53868;BME280;41577;47.470;19.080;2023-05-07T00:16:46;100177.84;;;15.62;100.00
53868;BME280;41577;47.470;19.080;2023-05-07T00:16:58;100191.28;;;15.62;100.00
53868;BME280;41577;47.470;19.080;2023-05-07T00:17:10;100190.22;;;15.63;100.00
53868;BME280;41577;47.470;19.080;2023-05-07T00:17:23;100189.63;;;15.61;100.00
53868;BME280;41577;47.470;19.080;2023-05-07T00:17:35;100187.75;;;15.62;100.00
53868;BME280;41577;47.470;19.080;2023-05-07T00:17:46;100188.59;;;15.62;100.00
53868;BME280;41577;47.470;19.080;2023-05-07T00:17:58;100186.94;;;15.61;100.00
53868;BME280;41577;47.470;19.080;2023-05-07T00:18:10;100183.44;;;15.61;100.00
53868;BME280;41577;47.470;19.080;2023-05-07T00:18:22;100193.13;;;15.62;100.00
53868;BME280;41577;47.470;19.080;2023-05-07T00:18:34;100185.06;;;15.62;100.00
53868;BME280;41577;47.470;19.080;2023-05-07T00:18:45;100186.94;;;15.61;100.00
53868;BME280;41577;47.470;19.080;2023-05-07T00:18:57;100191.50;;;15.61;100.00
53868;BME280;41577;47.470;19.080;2023-05-07T00:19:09;100193.13;;;15.62;100.00
53868;BME280;41577;47.470;19.080;2023-05-07T00:19:21;100186.13;;;15.61;100.00
53868;BME280;41577;47.470;19.080;2023-05-07T00:19:33;100191.50;;;15.61;100.00
53868;BME280;41577;47.470;19.080;2023-05-07T00:19:45;100186.13;;;15.61;100.00
53868;BME280;41577;47.470;19.080;2023-05-07T00:19:56;100193.13;;;15.62;100.00
53868;BME280;41577;47.470;19.080;2023-05-07T00:20:09;100188.81;;;15.61;100.00
53868;BME280;41577;47.470;19.080;2023-05-07T00:20:21;100190.69;;;15.60;100.00
53868;BME280;41577;47.470;19.080;2023-05-07T00:20:33;100192.31;;;15.61;100.00
53868;BME280;41577;47.470;19.080;2023-05-07T00:20:46;100192.31;;;15.61;100.00
53868;BME280;41577;47.470;19.080;2023-05-07T00:20:58;100193.97;;;15.62;100.00
53868;BME280;41577;47.470;19.080;2023-05-07T00:21:10;100193.97;;;15.62;100.00
53868;BME280;41577;47.470;19.080;2023-05-07T00:21:22;100188.59;;;15.62;100.00
53868;BME280;41577;47.470;19.080;2023-05-07T00:21:34;100196.69;;;15.62;100.00
53868;BME280;41577;47.470;19.080;2023-05-07T00:21:46;100191.28;;;15.62;100.00
53868;BME280;41577;47.470;19.080;2023-05-07T00:21:58;100188.59;;;15.62;100.00
53868;BME280;41577;47.470;19.080;2023-05-07T00:22:09;100185.06;;;15.62;100.00
53868;BME280;41577;47.470;19.080;2023-05-07T00:22:21;100194.81;;;15.63;100.00
53868;BME280;41577;47.470;19.080;2023-05-07T00:22:33;100192.09;;;15.63;100.00
53868;BME280;41577;47.470;19.080;2023-05-07T00:22:45;100190.22;;;15.63;100.00
53868;BME280;41577;47.470;19.080;2023-05-07T00:22:56;100192.31;;;15.61;100.00
53868;BME280;41577;47.470;19.080;2023-05-07T00:23:09;100196.69;;;15.62;100.00
53868;BME280;41577;47.470;19.080;2023-05-07T00:23:21;100195.63;;;15.63;100.00
53868;BME280;41577;47.470;19.080;2023-05-07T00:23:32;100197.50;;;15.63;100.00
53868;BME280;41577;47.470;19.080;2023-05-07T00:23:44;100195.63;;;15.63;100.00
53868;BME280;41577;47.470;19.080;2023-05-07T00:23:56;100190.22;;;15.63;100.00
53868;BME280;41577;47.470;19.080;2023-05-07T00:24:08;100182.97;;;15.64;100.00
53868;BME280;41577;47.470;19.080;2023-05-07T00:24:20;100190.22;;;15.63;100.00
53868;BME280;41577;47.470;19.080;2023-05-07T00:24:31;100194.81;;;15.63;100.00
53868;BME280;41577;47.470;19.080;2023-05-07T00:24:43;100191.28;;;15.62;100.00
53868;BME280;41577;47.470;19.080;2023-05-07T00:24:55;100195.00;;;15.61;100.00
53868;BME280;41577;47.470;19.080;2023-05-07T00:25:07;100185.06;;;15.62;100.00
53868;BME280;41577;47.470;19.080;2023-05-07T00:25:19;100189.63;;;15.61;100.00
53868;BME280;41577;47.470;19.080;2023-05-07T00:25:31;100188.81;;;15.61;100.00
53868;BME280;41577;47.470;19.080;2023-05-07T00:25:43;100184.47;;;15.60;100.00
53868;BME280;41577;47.470;19.080;2023-05-07T00:25:55;100187.16;;;15.60;100.00
53868;BME280;41577;47.470;19.080;2023-05-07T00:26:07;100186.34;;;15.59;100.00
53868;BME280;41577;47.470;19.080;2023-05-07T00:26:19;100194.41;;;15.59;100.00
53868;BME280;41577;47.470;19.080;2023-05-07T00:26:34;100194.41;;;15.59;100.00
53868;BME280;41577;47.470;19.080;2023-05-07T00:26:45;100187.41;;;15.58;100.00
53868;BME280;41577;47.470;19.080;2023-05-07T00:26:57;100191.97;;;15.58;100.00
53868;BME280;41577;47.470;19.080;2023-05-07T00:27:31;100192.78;;;15.58;100.00
53868;BME280;41577;47.470;19.080;2023-05-07T00:27:43;100200.03;;;15.58;100.00
53868;BME280;41577;47.470;19.080;2023-05-07T00:27:55;100195.69;;;15.57;100.00
53868;BME280;41577;47.470;19.080;2023-05-07T00:28:07;100186.19;;;15.54;100.00
53868;BME280;41577;47.470;19.080;2023-05-07T00:28:18;100188.66;;;15.56;100.00
53868;BME280;41577;47.470;19.080;2023-05-07T00:28:30;100193.22;;;15.55;100.00
53868;BME280;41577;47.470;19.080;2023-05-07T00:28:42;100191.56;;;15.54;100.00
53868;BME280;41577;47.470;19.080;2023-05-07T00:28:53;100196.97;;;15.54;100.00
53868;BME280;41577;47.470;19.080;2023-05-07T00:29:05;100196.97;;;15.54;100.00
53868;BME280;41577;47.470;19.080;2023-05-07T00:29:17;100192.63;;;15.53;100.00
53868;BME280;41577;47.470;19.080;2023-05-07T00:29:29;100194.47;;;15.53;100.00
53868;BME280;41577;47.470;19.080;2023-05-07T00:29:40;100194.72;;;15.51;100.00
53868;BME280;41577;47.470;19.080;2023-05-07T00:29:52;100198.22;;;15.52;100.00
53868;BME280;41577;47.470;19.080;2023-05-07T00:30:05;100191.19;;;15.51;100.00
53868;BME280;41577;47.470;19.080;2023-05-07T00:30:17;100195.75;;;15.50;100.00
53868;BME280;41577;47.470;19.080;2023-05-07T00:30:29;100199.50;;;15.49;100.00
53868;BME280;41577;47.470;19.080;2023-05-07T00:30:40;100195.97;;;15.48;100.00
53868;BME280;41577;47.470;19.080;2023-05-07T00:30:52;100200.53;;;15.48;100.00
53868;BME280;41577;47.470;19.080;2023-05-07T00:31:04;100201.34;;;15.48;100.00
53868;BME280;41577;47.470;19.080;2023-05-07T00:31:16;100196.22;;;15.47;100.00
53868;BME280;41577;47.470;19.080;2023-05-07T00:31:27;100198.09;;;15.46;100.00
53868;BME280;41577;47.470;19.080;2023-05-07T00:31:39;100198.91;;;15.47;100.00
53868;BME280;41577;47.470;19.080;2023-05-07T00:31:51;100197.25;;;15.46;100.00
53868;BME280;41577;47.470;19.080;2023-05-07T00:32:03;100197.25;;;15.46;100.00
53868;BME280;41577;47.470;19.080;2023-05-07T00:32:15;100192.91;;;15.45;100.00
53868;BME280;41577;47.470;19.080;2023-05-07T00:32:28;100200.19;;;15.44;100.00
53868;BME280;41577;47.470;19.080;2023-05-07T00:32:40;100194.78;;;15.44;100.00
53868;BME280;41577;47.470;19.080;2023-05-07T00:32:51;100195.00;;;15.43;100.00
53868;BME280;41577;47.470;19.080;2023-05-07T00:33:03;100202.03;;;15.44;100.00
53868;BME280;41577;47.470;19.080;2023-05-07T00:33:15;100192.53;;;15.41;100.00
53868;BME280;41577;47.470;19.080;2023-05-07T00:33:27;100199.78;;;15.41;100.00
53868;BME280;41577;47.470;19.080;2023-05-07T00:33:39;100188.19;;;15.40;100.00
53868;BME280;41577;47.470;19.080;2023-05-07T00:33:50;100192.53;;;15.41;100.00
53868;BME280;41577;47.470;19.080;2023-05-07T00:34:02;100192.78;;;15.40;100.00
53868;BME280;41577;47.470;19.080;2023-05-07T00:34:14;100193.59;;;15.40;100.00
53868;BME280;41577;47.470;19.080;2023-05-07T00:34:25;100192.78;;;15.40;100.00
53868;BME280;41577;47.470;19.080;2023-05-07T00:34:37;100200.00;;;15.39;100.00
53868;BME280;41577;47.470;19.080;2023-05-07T00:34:49;100192.97;;;15.38;100.00
53868;BME280;41577;47.470;19.080;2023-05-07T00:35:00;100199.19;;;15.39;100.00
53868;BME280;41577;47.470;19.080;2023-05-07T00:35:12;100196.72;;;15.37;100.00
53868;BME280;41577;47.470;19.080;2023-05-07T00:35:24;100194.84;;;15.38;100.00
53868;BME280;41577;47.470;19.080;2023-05-07T00:35:36;100192.38;;;15.36;100.00
53868;BME280;41577;47.470;19.080;2023-05-07T00:35:48;100186.19;;;15.36;100.00
53868;BME280;41577;47.470;19.080;2023-05-07T00:35:59;100193.44;;;15.35;100.00
53868;BME280;41577;47.470;19.080;2023-05-07T00:36:11;100193.66;;;15.34;100.00
53868;BME280;41577;47.470;19.080;2023-05-07T00:36:23;100197.97;;;15.35;100.00
53868;BME280;41577;47.470;19.080;2023-05-07T00:36:34;100190.97;;;15.34;100.00
53868;BME280;41577;47.470;19.080;2023-05-07T00:36:46;100183.94;;;15.33;100.00
53868;BME280;41577;47.470;19.080;2023-05-07T00:36:58;100191.16;;;15.32;100.00
53868;BME280;41577;47.470;19.080;2023-05-07T00:37:09;100192.22;;;15.31;100.00
53868;BME280;41577;47.470;19.080;2023-05-07T00:37:21;100187.66;;;15.32;100.00
53868;BME280;41577;47.470;19.080;2023-05-07T00:37:33;100192.22;;;15.31;100.00
53868;BME280;41577;47.470;19.080;2023-05-07T00:37:45;100192.44;;;15.30;100.00
53868;BME280;41577;47.470;19.080;2023-05-07T00:37:57;100187.06;;;15.30;100.00
53868;BME280;41577;47.470;19.080;2023-05-07T00:38:09;100191.63;;;15.29;100.00
53868;BME280;41577;47.470;19.080;2023-05-07T00:38:20;100190.81;;;15.29;100.00
53868;BME280;41577;47.470;19.080;2023-05-07T00:38:32;100185.44;;;15.29;100.00
53868;BME280;41577;47.470;19.080;2023-05-07T00:38:44;100187.31;;;15.28;100.00
53868;BME280;41577;47.470;19.080;2023-05-07T00:38:57;100185.63;;;15.27;100.00
53868;BME280;41577;47.470;19.080;2023-05-07T00:39:10;100191.22;;;15.25;100.00
53868;BME280;41577;47.470;19.080;2023-05-07T00:39:22;100190.22;;;15.26;100.00
53868;BME280;41577;47.470;19.080;2023-05-07T00:39:34;100190.22;;;15.26;100.00
53868;BME280;41577;47.470;19.080;2023-05-07T00:39:45;100187.50;;;15.26;100.00
53868;BME280;41577;47.470;19.080;2023-05-07T00:39:57;100193.09;;;15.25;100.00
53868;BME280;41577;47.470;19.080;2023-05-07T00:40:09;100193.09;;;15.25;100.00
53868;BME280;41577;47.470;19.080;2023-05-07T00:40:21;100181.53;;;15.24;100.00
53868;BME280;41577;47.470;19.080;2023-05-07T00:40:33;100186.91;;;15.24;100.00
53868;BME280;41577;47.470;19.080;2023-05-07T00:40:45;100194.16;;;15.24;100.00
53868;BME280;41577;47.470;19.080;2023-05-07T00:40:57;100192.28;;;15.24;100.00
53868;BME280;41577;47.470;19.080;2023-05-07T00:41:08;100189.59;;;15.24;100.00
53868;BME280;41577;47.470;19.080;2023-05-07T00:41:20;100191.47;;;15.24;100.00
53868;BME280;41577;47.470;19.080;2023-05-07T00:41:32;100194.38;;;15.22;100.00
53868;BME280;41577;47.470;19.080;2023-05-07T00:41:43;100191.69;;;15.22;100.00
53868;BME280;41577;47.470;19.080;2023-05-07T00:41:55;100188.41;;;15.20;100.00
53868;BME280;41577;47.470;19.080;2023-05-07T00:42:07;100184.69;;;15.21;100.00
53868;BME280;41577;47.470;19.080;2023-05-07T00:42:19;100185.69;;;15.20;100.00
53868;BME280;41577;47.470;19.080;2023-05-07T00:42:30;100188.41;;;15.20;100.00
53868;BME280;41577;47.470;19.080;2023-05-07T00:42:42;100193.97;;;15.19;100.00
53868;BME280;41577;47.470;19.080;2023-05-07T00:42:54;100192.16;;;15.19;100.00
53868;BME280;41577;47.470;19.080;2023-05-07T00:43:06;100188.59;;;15.19;100.00
53868;BME280;41577;47.470;19.080;2023-05-07T00:43:18;100185.09;;;15.18;100.00
53868;BME280;41577;47.470;19.080;2023-05-07T00:43:29;100185.34;;;15.17;100.00
53868;BME280;41577;47.470;19.080;2023-05-07T00:43:41;100190.72;;;15.17;100.00
53868;BME280;41577;47.470;19.080;2023-05-07T00:43:53;100193.41;;;15.17;100.00
53868;BME280;41577;47.470;19.080;2023-05-07T00:44:04;100193.41;;;15.17;100.00
53868;BME280;41577;47.470;19.080;2023-05-07T00:44:16;100197.94;;;15.16;100.00
53868;BME280;41577;47.470;19.080;2023-05-07T00:44:28;100190.94;;;15.15;100.00
53868;BME280;41577;47.470;19.080;2023-05-07T00:44:40;100195.50;;;15.15;100.00
53868;BME280;41577;47.470;19.080;2023-05-07T00:44:51;100184.13;;;15.13;100.00
53868;BME280;41577;47.470;19.080;2023-05-07T00:45:04;100187.63;;;15.13;100.00
53868;BME280;41577;47.470;19.080;2023-05-07T00:45:16;100191.38;;;15.12;100.00
53868;BME280;41577;47.470;19.080;2023-05-07T00:45:28;100194.06;;;15.12;100.00
53868;BME280;41577;47.470;19.080;2023-05-07T00:45:40;100194.88;;;15.13;100.00
53868;BME280;41577;47.470;19.080;2023-05-07T00:45:52;100194.06;;;15.12;100.00
53868;BME280;41577;47.470;19.080;2023-05-07T00:46:04;100196.75;;;15.12;100.00
53868;BME280;41577;47.470;19.080;2023-05-07T00:46:15;100192.41;;;15.11;100.00
53868;BME280;41577;47.470;19.080;2023-05-07T00:46:28;100188.91;;;15.11;100.00
53868;BME280;41577;47.470;19.080;2023-05-07T00:46:40;100191.59;;;15.11;100.00
53868;BME280;41577;47.470;19.080;2023-05-07T00:46:53;100190.78;;;15.10;100.00
53868;BME280;41577;47.470;19.080;2023-05-07T00:47:05;100191.81;;;15.09;100.00
53868;BME280;41577;47.470;19.080;2023-05-07T00:47:17;100189.13;;;15.09;100.00
53868;BME280;41577;47.470;19.080;2023-05-07T00:47:31;100189.13;;;15.09;100.00
53868;BME280;41577;47.470;19.080;2023-05-07T00:47:43;100195.31;;;15.10;100.00
53868;BME280;41577;47.470;19.080;2023-05-07T00:47:55;100182.31;;;15.06;100.00
53868;BME280;41577;47.470;19.080;2023-05-07T00:48:08;100199.28;;;15.07;100.00
53868;BME280;41577;47.470;19.080;2023-05-07T00:48:20;100188.75;;;15.05;100.00
53868;BME280;41577;47.470;19.080;2023-05-07T00:48:33;100191.19;;;15.07;100.00
53868;BME280;41577;47.470;19.080;2023-05-07T00:48:45;100189.56;;;15.06;100.00
53868;BME280;41577;47.470;19.080;2023-05-07T00:48:57;100192.03;;;15.08;100.00
53868;BME280;41577;47.470;19.080;2023-05-07T00:49:08;100193.88;;;15.07;100.00
53868;BME280;41577;47.470;19.080;2023-05-07T00:49:20;100194.94;;;15.06;100.00
53868;BME280;41577;47.470;19.080;2023-05-07T00:49:37;100192.25;;;15.06;100.00
53868;BME280;41577;47.470;19.080;2023-05-07T00:49:49;100195.75;;;15.06;100.00
53868;BME280;41577;47.470;19.080;2023-05-07T00:50:01;100194.34;;;15.04;100.00
53868;BME280;41577;47.470;19.080;2023-05-07T00:50:13;100194.94;;;15.06;100.00
53868;BME280;41577;47.470;19.080;2023-05-07T00:50:25;100201.34;;;15.05;100.00
53868;BME280;41577;47.470;19.080;2023-05-07T00:50:37;100196.22;;;15.03;100.00
53868;BME280;41577;47.470;19.080;2023-05-07T00:50:49;100198.91;;;15.03;100.00
53868;BME280;41577;47.470;19.080;2023-05-07T00:51:01;100194.56;;;15.02;100.00
53868;BME280;41577;47.470;19.080;2023-05-07T00:51:12;100198.91;;;15.03;100.00
53868;BME280;41577;47.470;19.080;2023-05-07T00:51:25;100193.13;;;15.00;100.00
53868;BME280;41577;47.470;19.080;2023-05-07T00:51:36;100201.00;;;15.01;100.00
53868;BME280;41577;47.470;19.080;2023-05-07T00:51:49;100196.44;;;15.02;100.00
53868;BME280;41577;47.470;19.080;2023-05-07T00:52:01;100203.69;;;15.01;100.00
53868;BME280;41577;47.470;19.080;2023-05-07T00:52:14;100200.16;;;15.01;100.00
53868;BME280;41577;47.470;19.080;2023-05-07T00:52:27;100201.00;;;15.01;100.00
53868;BME280;41577;47.470;19.080;2023-05-07T00:52:40;100203.88;;;15.00;100.00
53868;BME280;41577;47.470;19.080;2023-05-07T00:52:51;100200.38;;;14.99;100.00
53868;BME280;41577;47.470;19.080;2023-05-07T00:53:04;100197.09;;;14.97;100.00
53868;BME280;41577;47.470;19.080;2023-05-07T00:53:16;100194.19;;;14.99;100.00
53868;BME280;41577;47.470;19.080;2023-05-07T00:53:28;100205.75;;;14.99;100.00
53868;BME280;41577;47.470;19.080;2023-05-07T00:53:39;100199.78;;;14.97;100.00
53868;BME280;41577;47.470;19.080;2023-05-07T00:53:51;100204.09;;;14.98;100.00
53868;BME280;41577;47.470;19.080;2023-05-07T00:54:03;100197.09;;;14.97;100.00
53868;BME280;41577;47.470;19.080;2023-05-07T00:54:15;100204.34;;;14.97;100.00
53868;BME280;41577;47.470;19.080;2023-05-07T00:54:27;100198.97;;;14.97;100.00
53868;BME280;41577;47.470;19.080;2023-05-07T00:54:40;100204.34;;;14.97;100.00
53868;BME280;41577;47.470;19.080;2023-05-07T00:54:52;100200.84;;;14.96;100.00
53868;BME280;41577;47.470;19.080;2023-05-07T00:55:05;100201.84;;;14.95;100.00
53868;BME280;41577;47.470;19.080;2023-05-07T00:55:17;100201.03;;;14.95;100.00
53868;BME280;41577;47.470;19.080;2023-05-07T00:55:29;100201.03;;;14.95;100.00
53868;BME280;41577;47.470;19.080;2023-05-07T00:55:41;100209.09;;;14.95;100.00
53868;BME280;41577;47.470;19.080;2023-05-07T00:55:53;100204.75;;;14.94;100.00
53868;BME280;41577;47.470;19.080;2023-05-07T00:56:06;100203.13;;;14.93;100.00
53868;BME280;41577;47.470;19.080;2023-05-07T00:56:18;100199.00;;;14.90;100.00
53868;BME280;41577;47.470;19.080;2023-05-07T00:56:30;100203.13;;;14.93;100.00
53868;BME280;41577;47.470;19.080;2023-05-07T00:56:43;100200.44;;;14.93;100.00
53868;BME280;41577;47.470;19.080;2023-05-07T00:56:56;100207.69;;;14.92;100.00
53868;BME280;41577;47.470;19.080;2023-05-07T00:57:09;100200.88;;;14.90;100.00
53868;BME280;41577;47.470;19.080;2023-05-07T00:57:21;100199.00;;;14.90;100.00
53868;BME280;41577;47.470;19.080;2023-05-07T00:57:36;100205.22;;;14.91;100.00
53868;BME280;41577;47.470;19.080;2023-05-07T00:57:49;100206.03;;;14.91;100.00
53868;BME280;41577;47.470;19.080;2023-05-07T00:58:01;100204.59;;;14.89;100.00
53868;BME280;41577;47.470;19.080;2023-05-07T00:58:13;100200.03;;;14.89;100.00
53868;BME280;41577;47.470;19.080;2023-05-07T00:58:25;100202.72;;;14.89;100.00
53868;BME280;41577;47.470;19.080;2023-05-07T00:58:37;100201.91;;;14.89;100.00
53868;BME280;41577;47.470;19.080;2023-05-07T00:58:49;100202.16;;;14.87;100.00
53868;BME280;41577;47.470;19.080;2023-05-07T00:59:01;100208.34;;;14.88;100.00
53868;BME280;41577;47.470;19.080;2023-05-07T00:59:13;100207.53;;;14.87;100.00
53868;BME280;41577;47.470;19.080;2023-05-07T00:59:25;100209.38;;;14.87;100.00
53868;BME280;41577;47.470;19.080;2023-05-07T00:59:37;100205.03;;;14.85;100.00
53868;BME280;41577;47.470;19.080;2023-05-07T00:59:50;100207.72;;;14.85;100.00
53868;BME280;41577;47.470;19.080;2023-05-07T01:00:03;100209.59;;;14.85;100.00
53868;BME280;41577;47.470;19.080;2023-05-07T01:00:15;100207.94;;;14.84;100.00
53868;BME280;41577;47.470;19.080;2023-05-07T01:00:28;100206.06;;;14.84;100.00
53868;BME280;41577;47.470;19.080;2023-05-07T01:00:40;100204.22;;;14.85;100.00
53868;BME280;41577;47.470;19.080;2023-05-07T01:00:51;100200.13;;;14.82;100.00
53868;BME280;41577;47.470;19.080;2023-05-07T01:01:03;100201.75;;;14.83;100.00
53868;BME280;41577;47.470;19.080;2023-05-07T01:01:15;100211.69;;;14.83;100.00
53868;BME280;41577;47.470;19.080;2023-05-07T01:01:27;100204.66;;;14.82;100.00
53868;BME280;41577;47.470;19.080;2023-05-07T01:01:39;100206.31;;;14.83;100.00